Time;durP1;ratioP1;P1;durP2;ratioP2;P2;SDS_P1;SDS_P2;PMS_P1;PMS_P2;Temp;Humidity;BMP_temperature;BMP_pressure;BME280_temperature;BME280_humidity;BME280_pressure;Samples;Min_cycle;Max_cycle;Signal;HPM_P1;HPM_P2
2022/02/13 00:00:12;;;;;;;6.87;5.22;;;4.60;77.70;;;;;;1898425;75;21024;-45
2022/02/13 00:02:42;;;;;;;4.87;4.40;;;4.60;77.90;;;;;;1898417;75;21095;-45
2022/02/13 00:05:11;;;;;;;8.13;5.58;;;4.50;77.90;;;;;;1898374;75;21032;-45
2022/02/13 00:07:41;;;;;;;6.55;5.40;;;4.60;79.00;;;;;;1898424;75;21051;-45
2022/02/13 00:10:12;;;;;;;7.03;5.37;;;4.60;79.10;;;;;;1898508;75;21102;-45
2022/02/13 00:12:42;;;;;;;6.22;4.83;;;4.60;78.50;;;;;;1898473;75;21101;-45
2022/02/13 00:15:11;;;;;;;6.83;5.70;;;4.60;77.50;;;;;;1898578;75;21027;-45
2022/02/13 00:17:41;;;;;;;9.48;6.65;;;4.70;78.80;;;;;;1898535;75;21038;-45
2022/02/13 00:20:11;;;;;;;8.10;6.10;;;4.70;76.90;;;;;;1898621;75;21089;-45
2022/02/13 00:22:40;;;;;;;8.35;6.22;;;4.70;78.00;;;;;;1898636;75;21089;-46
2022/02/13 00:25:10;;;;;;;8.35;7.10;;;4.70;77.40;;;;;;1898501;75;21085;-45
2022/02/13 00:27:39;;;;;;;7.22;6.50;;;4.70;77.20;;;;;;1898572;75;21023;-46
2022/02/13 00:30:11;;;;;;;4.55;3.87;;;4.70;76.80;;;;;;1898510;75;21105;-46
2022/02/13 00:32:43;;;;;;;10.90;7.08;;;4.60;73.70;;;;;;1898553;75;21529;-46
2022/02/13 00:35:13;;;;;;;10.45;7.25;;;4.50;74.10;;;;;;1898422;75;21164;-45
2022/02/13 00:37:44;;;;;;;5.10;4.37;;;4.50;75.30;;;;;;1898546;75;21109;-45
2022/02/13 00:40:14;;;;;;;8.13;7.30;;;4.50;75.80;;;;;;1898554;75;21051;-45
2022/02/13 00:42:43;;;;;;;9.28;7.70;;;4.50;76.10;;;;;;1898538;75;21032;-45
2022/02/13 00:45:12;;;;;;;10.03;7.70;;;4.50;76.50;;;;;;1898438;75;21089;-45
2022/02/13 00:47:42;;;;;;;11.73;8.60;;;4.50;76.80;;;;;;1899372;75;21058;-46
2022/02/13 00:50:11;;;;;;;9.65;7.85;;;4.50;77.10;;;;;;1903446;75;21073;-45
2022/02/13 00:52:40;;;;;;;7.97;7.03;;;4.50;76.90;;;;;;1903543;75;21023;-45
2022/02/13 00:55:10;;;;;;;8.90;5.87;;;4.50;76.60;;;;;;1903567;75;21047;-45
2022/02/13 00:57:39;;;;;;;8.43;6.22;;;4.50;75.90;;;;;;1903439;75;21066;-45
2022/02/13 01:00:09;;;;;;;9.20;6.05;;;4.50;76.40;;;;;;1903429;75;21007;-47
2022/02/13 01:02:38;;;;;;;6.95;5.83;;;4.40;76.80;;;;;;1903463;75;21493;-45
2022/02/13 01:05:08;;;;;;;3.92;3.40;;;4.50;76.70;;;;;;1903458;75;21085;-45
2022/02/13 01:07:37;;;;;;;5.65;3.27;;;4.50;75.60;;;;;;1903467;75;21009;-45
2022/02/13 01:10:07;;;;;;;4.12;3.22;;;4.40;75.00;;;;;;1903499;75;21031;-45
2022/02/13 01:12:37;;;;;;;3.77;2.83;;;4.40;74.10;;;;;;1903483;75;21101;-44
2022/02/13 01:15:06;;;;;;;2.58;1.77;;;4.30;75.30;;;;;;1903472;75;21027;-46
2022/02/13 01:17:36;;;;;;;3.62;3.27;;;4.30;74.10;;;;;;1903443;75;21102;-45
2022/02/13 01:20:06;;;;;;;3.17;2.37;;;4.20;74.70;;;;;;1903530;75;21030;-46
2022/02/13 01:22:35;;;;;;;4.53;2.15;;;4.20;73.30;;;;;;1903539;75;21100;-46
2022/02/13 01:25:05;;;;;;;6.22;2.52;;;4.20;74.60;;;;;;1903507;75;21081;-46
2022/02/13 01:27:34;;;;;;;2.87;2.47;;;4.10;73.30;;;;;;1903469;75;21092;-45
2022/02/13 01:30:05;;;;;;;2.90;2.65;;;4.10;73.80;;;;;;1903429;75;21027;-45
2022/02/13 01:32:34;;;;;;;4.62;2.85;;;4.10;73.20;;;;;;1903411;75;21027;-45
2022/02/13 01:35:04;;;;;;;4.00;2.90;;;4.10;74.50;;;;;;1903447;75;21023;-46
2022/02/13 01:37:34;;;;;;;3.80;2.70;;;4.00;74.40;;;;;;1903512;75;21036;-46
2022/02/13 01:40:05;;;;;;;5.87;3.02;;;4.10;74.60;;;;;;1903563;75;21043;-45
2022/02/13 01:42:34;;;;;;;6.80;3.67;;;4.10;75.00;;;;;;1903469;75;21007;-47
2022/02/13 01:45:04;;;;;;;7.62;3.35;;;4.10;75.40;;;;;;1903422;75;21039;-45
2022/02/13 01:47:34;;;;;;;3.40;2.00;;;4.10;75.70;;;;;;1903594;75;21031;-45
2022/02/13 01:50:06;;;;;;;3.77;3.08;;;4.00;75.60;;;;;;1903424;75;21067;-45
2022/02/13 01:52:36;;;;;;;3.00;2.67;;;4.00;76.00;;;;;;1903529;75;21028;-45
2022/02/13 01:55:06;;;;;;;5.85;3.70;;;4.00;76.00;;;;;;1903557;75;21035;-45
2022/02/13 01:57:35;;;;;;;3.85;3.17;;;4.00;76.40;;;;;;1903427;75;21023;-45
2022/02/13 02:00:07;;;;;;;4.85;3.20;;;4.00;76.30;;;;;;1903444;75;21027;-45
2022/02/13 02:02:38;;;;;;;3.90;2.87;;;3.90;76.50;;;;;;1900552;75;21050;-45
2022/02/13 02:05:08;;;;;;;4.67;3.87;;;3.90;76.40;;;;;;1903561;75;21019;-46
2022/02/13 02:07:37;;;;;;;5.40;3.52;;;3.80;76.60;;;;;;1903507;75;21109;-46
2022/02/13 02:10:07;;;;;;;4.35;3.33;;;3.80;76.90;;;;;;1903537;75;21089;-46
2022/02/13 02:12:37;;;;;;;4.05;3.30;;;3.80;77.30;;;;;;1903501;75;21062;-45
2022/02/13 02:15:08;;;;;;;4.55;3.40;;;3.80;77.20;;;;;;1903507;75;21062;-45
2022/02/13 02:17:37;;;;;;;3.95;3.25;;;3.80;77.50;;;;;;1903517;75;21055;-45
2022/02/13 02:20:07;;;;;;;9.03;3.47;;;3.80;78.00;;;;;;1903565;75;21074;-45
2022/02/13 02:22:36;;;;;;;5.85;3.45;;;3.80;77.70;;;;;;1903641;75;21088;-45
2022/02/13 02:25:06;;;;;;;4.58;3.65;;;3.80;78.10;;;;;;1903524;75;21094;-45
2022/02/13 02:27:36;;;;;;;4.45;3.40;;;3.80;78.10;;;;;;1903499;75;21156;-45
2022/02/13 02:30:06;;;;;;;7.35;3.67;;;3.90;78.40;;;;;;1903404;75;21031;-45
2022/02/13 02:32:35;;;;;;;5.17;3.80;;;3.90;78.50;;;;;;1903400;75;21031;-45
2022/02/13 02:35:05;;;;;;;5.37;3.72;;;3.90;78.70;;;;;;1903428;75;21105;-45
2022/02/13 02:37:35;;;;;;;4.80;3.62;;;4.00;78.80;;;;;;1903502;75;21035;-45
2022/02/13 02:40:04;;;;;;;4.35;3.90;;;4.10;78.80;;;;;;1903520;75;21035;-45
2022/02/13 02:42:34;;;;;;;5.10;3.75;;;4.10;78.90;;;;;;1903527;75;21011;-46
2022/02/13 02:45:03;;;;;;;5.87;3.55;;;4.20;79.20;;;;;;1903432;75;21023;-45
2022/02/13 02:47:33;;;;;;;6.67;4.03;;;4.30;79.40;;;;;;1903483;75;21008;-45
2022/02/13 02:50:02;;;;;;;5.83;4.25;;;4.30;79.50;;;;;;1900565;75;21524;-45
2022/02/13 02:52:32;;;;;;;5.97;4.15;;;4.30;79.60;;;;;;1898363;75;21031;-45
2022/02/13 02:55:01;;;;;;;7.72;4.70;;;4.40;79.80;;;;;;1898380;75;21039;-46
2022/02/13 02:57:30;;;;;;;6.47;4.50;;;4.40;79.90;;;;;;1898379;75;21084;-45
2022/02/13 03:00:00;;;;;;;9.70;4.42;;;4.40;80.10;;;;;;1898515;75;21023;-46
2022/02/13 03:02:29;;;;;;;6.78;4.50;;;4.40;80.40;;;;;;1898403;75;21085;-44
2022/02/13 03:04:58;;;;;;;6.03;4.42;;;4.40;80.30;;;;;;1898407;75;21004;-45
2022/02/13 03:07:28;;;;;;;6.25;4.60;;;4.50;80.80;;;;;;1898392;75;21027;-45
2022/02/13 03:09:57;;;;;;;6.95;4.35;;;4.50;80.70;;;;;;1898410;75;21011;-45
2022/02/13 03:12:27;;;;;;;7.47;4.12;;;4.40;80.70;;;;;;1898388;75;21063;-45
2022/02/13 03:14:56;;;;;;;7.35;4.60;;;4.50;80.80;;;;;;1898385;75;21043;-45
2022/02/13 03:17:25;;;;;;;6.00;3.85;;;4.40;80.80;;;;;;1898489;75;21008;-45
2022/02/13 03:19:55;;;;;;;6.08;4.55;;;4.40;80.80;;;;;;1898399;75;21081;-46
2022/02/13 03:22:24;;;;;;;7.03;4.67;;;4.40;81.00;;;;;;1898522;75;21129;-45
2022/02/13 03:24:58;;;;;;;5.67;4.10;;;4.40;81.20;;;;;;1898391;75;21035;-46
2022/02/13 03:27:24;;;;;;;6.55;4.92;;;4.40;81.40;;;;;;1898070;75;21019;-45
2022/02/13 03:29:54;;;;;;;7.12;4.42;;;4.40;81.50;;;;;;1898303;75;21066;-45
2022/02/13 03:32:23;;;;;;;11.40;5.12;;;4.40;81.60;;;;;;1898434;75;21097;-46
2022/02/13 03:34:52;;;;;;;8.65;5.22;;;4.40;81.70;;;;;;1898414;75;21011;-45
2022/02/13 03:37:22;;;;;;;9.33;4.95;;;4.40;81.70;;;;;;1898388;75;21027;-46
2022/02/13 03:39:51;;;;;;;8.00;5.45;;;4.40;82.40;;;;;;1898346;75;21027;-45
2022/02/13 03:42:20;;;;;;;11.60;5.47;;;4.40;82.00;;;;;;1898360;75;21027;-45
2022/02/13 03:44:50;;;;;;;8.33;4.58;;;4.40;82.20;;;;;;1898381;75;21003;-45
2022/02/13 03:47:20;;;;;;;6.80;4.00;;;4.30;82.30;;;;;;1898477;75;21074;-45
2022/02/13 03:49:49;;;;;;;6.85;4.60;;;4.30;82.40;;;;;;1899645;75;21051;-45
2022/02/13 03:52:18;;;;;;;6.80;4.70;;;4.40;82.60;;;;;;1903601;75;21023;-46
2022/02/13 03:54:47;;;;;;;7.75;4.08;;;4.40;82.60;;;;;;1903488;75;21062;-46
2022/02/13 03:57:17;;;;;;;5.47;3.98;;;4.40;82.80;;;;;;1903582;75;21086;-45
2022/02/13 03:59:46;;;;;;;5.78;4.03;;;4.30;83.00;;;;;;1903477;75;21179;-45
2022/02/13 04:02:16;;;;;;;7.40;4.62;;;4.40;83.00;;;;;;1903628;75;21027;-45
2022/02/13 04:04:45;;;;;;;11.73;4.67;;;4.40;82.90;;;;;;1903498;75;21085;-45
2022/02/13 04:07:14;;;;;;;5.83;4.47;;;4.40;83.00;;;;;;1903531;75;21097;-45
2022/02/13 04:09:44;;;;;;;5.97;4.03;;;4.30;83.10;;;;;;1903597;75;21027;-45
2022/02/13 04:12:13;;;;;;;8.53;4.53;;;4.30;83.20;;;;;;1903454;75;21019;-45
2022/02/13 04:14:42;;;;;;;5.03;4.15;;;4.30;83.30;;;;;;1903452;75;21089;-45
2022/02/13 04:17:12;;;;;;;6.67;4.37;;;4.30;83.30;;;;;;1903624;75;21031;-45
2022/02/13 04:19:43;;;;;;;7.83;4.72;;;4.30;83.30;;;;;;1903576;75;21458;-47
2022/02/13 04:22:12;;;;;;;11.38;5.30;;;4.30;83.40;;;;;;1903486;75;21097;-45
2022/02/13 04:24:41;;;;;;;12.25;8.13;;;4.20;83.40;;;;;;1903421;75;21027;-45
2022/02/13 04:27:11;;;;;;;34.88;16.90;;;4.20;83.40;;;;;;1903531;75;21059;-46
2022/02/13 04:29:40;;;;;;;29.98;15.88;;;4.20;83.50;;;;;;1903554;75;21027;-46
2022/02/13 04:32:10;;;;;;;8.90;4.62;;;4.20;83.60;;;;;;1903397;75;21027;-46
2022/02/13 04:34:41;;;;;;;8.40;4.67;;;4.20;83.60;;;;;;1903572;75;20999;-46
2022/02/13 04:37:10;;;;;;;7.75;4.95;;;4.20;83.80;;;;;;1903580;75;21108;-45
2022/02/13 04:39:40;;;;;;;8.68;4.75;;;4.20;83.80;;;;;;1903530;75;21055;-45
2022/02/13 04:42:09;;;;;;;8.13;5.20;;;4.20;83.80;;;;;;1903602;75;21031;-45
2022/02/13 04:44:38;;;;;;;7.55;4.40;;;4.20;83.90;;;;;;1903455;75;21465;-45
2022/02/13 04:47:08;;;;;;;10.30;5.08;;;4.20;83.90;;;;;;1903565;75;21032;-45
2022/02/13 04:49:37;;;;;;;7.50;4.92;;;4.20;84.10;;;;;;1903387;75;21011;-46
2022/02/13 04:52:07;;;;;;;6.35;4.42;;;4.20;84.10;;;;;;1898898;75;21102;-45
2022/02/13 04:54:36;;;;;;;7.50;5.47;;;4.20;84.20;;;;;;1898509;75;21132;-46
2022/02/13 04:57:06;;;;;;;6.97;4.70;;;4.20;84.20;;;;;;1898526;75;21097;-45
2022/02/13 04:59:37;;;;;;;9.83;5.22;;;4.20;84.40;;;;;;1898373;75;21122;-45
2022/02/13 05:02:06;;;;;;;6.92;4.22;;;4.20;84.30;;;;;;1898560;75;21028;-45
2022/02/13 05:04:35;;;;;;;7.58;4.80;;;4.20;84.30;;;;;;1898547;75;21031;-46
2022/02/13 05:07:05;;;;;;;6.42;4.30;;;4.20;84.30;;;;;;1898474;75;21027;-46
2022/02/13 05:09:35;;;;;;;8.23;5.30;;;4.20;83.90;;;;;;1898458;75;21036;-46
2022/02/13 05:12:04;;;;;;;8.93;5.17;;;4.20;83.80;;;;;;1898464;75;21003;-46
2022/02/13 05:14:34;;;;;;;7.10;4.50;;;4.20;84.10;;;;;;1898500;75;21031;-47
2022/02/13 05:17:03;;;;;;;5.92;4.37;;;4.20;84.20;;;;;;1898541;75;21027;-46
2022/02/13 05:19:32;;;;;;;10.00;5.62;;;4.20;84.30;;;;;;1898511;75;21047;-46
2022/02/13 05:22:02;;;;;;;6.75;5.08;;;4.30;84.40;;;;;;1898445;75;21081;-47
2022/02/13 05:24:36;;;;;;;9.33;5.65;;;4.30;84.40;;;;;;1898411;75;21027;-47
2022/02/13 05:27:05;;;;;;;13.88;7.42;;;4.30;83.80;;;;;;1898502;75;21003;-47
2022/02/13 05:29:34;;;;;;;11.00;6.87;;;4.30;83.40;;;;;;1898428;75;21031;-46
2022/02/13 05:32:05;;;;;;;11.18;7.70;;;4.20;83.30;;;;;;1898352;75;21113;-47
2022/02/13 05:34:35;;;;;;;9.48;6.30;;;4.20;83.20;;;;;;1898512;75;21093;-46
2022/02/13 05:37:05;;;;;;;10.40;6.67;;;4.10;83.30;;;;;;1898531;75;21179;-47
2022/02/13 05:39:34;;;;;;;9.90;6.08;;;4.00;82.40;;;;;;1898374;75;21011;-46
2022/02/13 05:42:04;;;;;;;10.65;5.78;;;3.90;81.20;;;;;;1898564;75;21035;-47
2022/02/13 05:44:33;;;;;;;7.85;5.08;;;3.80;80.90;;;;;;1898443;75;21031;-47
2022/02/13 05:47:03;;;;;;;6.92;5.08;;;3.70;82.30;;;;;;1898418;75;21053;-47
2022/02/13 05:49:32;;;;;;;6.42;4.62;;;3.70;83.10;;;;;;1898501;75;21105;-47
2022/02/13 05:52:02;;;;;;;7.15;4.62;;;3.70;80.80;;;;;;1900632;75;21062;-47
2022/02/13 05:54:31;;;;;;;7.30;5.42;;;3.60;80.40;;;;;;1915732;75;21088;-46
2022/02/13 05:57:01;;;;;;;8.83;4.85;;;3.50;81.00;;;;;;1915798;75;21096;-47
2022/02/13 05:59:30;;;;;;;9.73;4.92;;;3.40;81.40;;;;;;1915706;75;21078;-47
2022/02/13 06:01:59;;;;;;;11.95;6.37;;;3.40;81.30;;;;;;1915977;75;21002;-47
2022/02/13 06:04:29;;;;;;;8.23;4.85;;;3.30;80.90;;;;;;1915807;75;21112;-46
2022/02/13 06:06:58;;;;;;;9.95;5.58;;;3.20;81.00;;;;;;1915755;75;21085;-47
2022/02/13 06:09:27;;;;;;;5.97;4.20;;;3.20;81.50;;;;;;1915746;75;21046;-47
2022/02/13 06:11:57;;;;;;;14.80;5.55;;;3.20;81.50;;;;;;1915735;75;21031;-47
2022/02/13 06:14:26;;;;;;;5.72;3.70;;;3.20;81.80;;;;;;1915721;75;21027;-47
2022/02/13 06:16:57;;;;;;;7.53;5.28;;;3.10;81.50;;;;;;1915691;75;21092;-46
2022/02/13 06:19:26;;;;;;;7.33;4.90;;;3.10;81.00;;;;;;1915803;75;21030;-46
2022/02/13 06:21:56;;;;;;;6.15;2.70;;;3.10;81.60;;;;;;1915748;75;21072;-47
2022/02/13 06:24:25;;;;;;;5.10;3.02;;;3.20;81.30;;;;;;1915738;75;21030;-47
2022/02/13 06:26:54;;;;;;;8.73;5.65;;;3.20;80.60;;;;;;1915748;75;21139;-47
2022/02/13 06:29:24;;;;;;;5.30;3.65;;;3.20;81.60;;;;;;1915853;75;21093;-47
2022/02/13 06:31:53;;;;;;;8.78;4.10;;;3.20;81.30;;;;;;1915661;75;21030;-47
2022/02/13 06:34:22;;;;;;;7.72;3.85;;;3.30;81.50;;;;;;1915697;75;21069;-46
2022/02/13 06:36:52;;;;;;;11.70;5.92;;;3.30;81.00;;;;;;1915720;75;21116;-48
2022/02/13 06:39:21;;;;;;;10.23;5.05;;;3.40;81.30;;;;;;1915693;75;21038;-47
2022/02/13 06:41:51;;;;;;;5.67;3.90;;;3.40;81.50;;;;;;1915618;75;21006;-46
2022/02/13 06:44:21;;;;;;;6.72;3.85;;;3.50;80.90;;;;;;1915629;75;21096;-46
2022/02/13 06:46:50;;;;;;;4.12;2.65;;;3.50;81.10;;;;;;1915739;75;21042;-47
2022/02/13 06:49:19;;;;;;;6.12;3.85;;;3.50;80.10;;;;;;1915713;75;21155;-47
2022/02/13 06:51:48;;;;;;;8.58;3.80;;;3.60;81.00;;;;;;1915770;75;21513;-46
2022/02/13 06:54:18;;;;;;;5.35;3.90;;;3.50;80.40;;;;;;1911499;75;21094;-46
2022/02/13 06:56:48;;;;;;;9.15;4.87;;;3.50;80.60;;;;;;1903507;75;21100;-47
2022/02/13 06:59:18;;;;;;;6.25;3.85;;;3.50;80.70;;;;;;1903400;75;21081;-47
2022/02/13 07:01:47;;;;;;;7.83;3.75;;;3.50;80.80;;;;;;1903325;75;21023;-47
2022/02/13 07:04:16;;;;;;;5.20;3.20;;;3.50;80.60;;;;;;1903480;75;21023;-47
2022/02/13 07:06:46;;;;;;;10.60;5.22;;;3.50;80.70;;;;;;1903471;75;21092;-48
2022/02/13 07:09:15;;;;;;;9.73;4.62;;;3.60;80.90;;;;;;1903388;75;21126;-47
2022/02/13 07:11:45;;;;;;;8.65;5.17;;;3.70;81.30;;;;;;1903407;75;21030;-48
2022/02/13 07:14:14;;;;;;;5.70;3.45;;;3.70;80.90;;;;;;1903372;75;21092;-47
2022/02/13 07:16:44;;;;;;;5.62;3.92;;;3.90;80.80;;;;;;1903522;75;21027;-47
2022/02/13 07:19:13;;;;;;;4.95;4.45;;;3.90;80.80;;;;;;1903366;75;21098;-46
2022/02/13 07:21:42;;;;;;;6.45;4.78;;;4.00;79.10;;;;;;1903509;75;21105;-50
2022/02/13 07:24:14;;;;;;;4.33;3.37;;;4.00;79.70;;;;;;1903443;75;21047;-47
2022/02/13 07:26:43;;;;;;;6.30;3.92;;;3.90;78.60;;;;;;1903515;75;21046;-47
2022/02/13 07:29:12;;;;;;;6.78;3.67;;;3.80;79.30;;;;;;1903362;75;21020;-47
2022/02/13 07:31:42;;;;;;;8.25;5.37;;;3.80;79.50;;;;;;1903342;75;21109;-47
2022/02/13 07:34:11;;;;;;;7.90;4.45;;;3.70;80.00;;;;;;1903305;75;21023;-47
2022/02/13 07:36:40;;;;;;;8.38;4.75;;;3.70;79.90;;;;;;1903449;75;21027;-47
2022/02/13 07:39:09;;;;;;;6.40;3.17;;;3.80;78.70;;;;;;1903405;75;21030;-49
2022/02/13 07:41:39;;;;;;;9.15;5.65;;;3.70;78.50;;;;;;1903377;75;21129;-47
2022/02/13 07:44:09;;;;;;;7.83;6.47;;;3.60;79.30;;;;;;1903398;75;21105;-48
2022/02/13 07:46:38;;;;;;;7.67;4.47;;;3.60;79.80;;;;;;1903434;75;21094;-47
2022/02/13 07:49:08;;;;;;;10.13;5.87;;;3.60;79.80;;;;;;1903455;75;21090;-47
2022/02/13 07:51:38;;;;;;;9.88;5.53;;;3.60;79.80;;;;;;1903380;75;21093;-47
2022/02/13 07:54:07;;;;;;;12.25;6.08;;;3.50;79.80;;;;;;1903468;75;21089;-47
2022/02/13 07:56:36;;;;;;;8.73;5.15;;;3.60;80.10;;;;;;1903309;75;21047;-48
2022/02/13 07:59:06;;;;;;;8.70;5.22;;;3.60;80.00;;;;;;1903333;75;21097;-47
2022/02/13 08:01:35;;;;;;;11.10;5.40;;;3.60;79.00;;;;;;1903416;75;21023;-46
2022/02/13 08:04:05;;;;;;;9.10;4.00;;;3.60;78.70;;;;;;1903355;75;21128;-47
2022/02/13 08:06:34;;;;;;;10.05;6.10;;;3.60;78.40;;;;;;1903379;75;21031;-47
2022/02/13 08:09:03;;;;;;;7.92;3.65;;;3.60;78.30;;;;;;1903355;75;21077;-47
2022/02/13 08:11:33;;;;;;;5.33;3.72;;;3.60;77.60;;;;;;1903313;75;21089;-46
2022/02/13 08:14:02;;;;;;;9.30;4.47;;;3.60;77.80;;;;;;1903357;75;21059;-46
2022/02/13 08:16:32;;;;;;;9.78;5.33;;;3.60;77.90;;;;;;1903336;75;21084;-46
2022/02/13 08:19:01;;;;;;;9.18;5.85;;;3.70;77.00;;;;;;1903273;75;21031;-46
2022/02/13 08:21:30;;;;;;;8.13;4.67;;;3.80;77.10;;;;;;1903305;75;21031;-47
2022/02/13 08:23:59;;;;;;;5.50;2.70;;;3.90;76.40;;;;;;1903282;75;21039;-46
2022/02/13 08:26:29;;;;;;;3.95;3.02;;;3.90;74.70;;;;;;1903380;75;21452;-46
2022/02/13 08:29:00;;;;;;;2.37;2.20;;;4.00;75.40;;;;;;1903356;75;21082;-46
2022/02/13 08:31:29;;;;;;;5.65;3.47;;;4.10;73.00;;;;;;1903446;75;21434;-48
2022/02/13 08:33:59;;;;;;;5.95;3.22;;;4.10;73.20;;;;;;1903432;75;21093;-46
2022/02/13 08:36:28;;;;;;;3.17;2.27;;;4.20;74.10;;;;;;1903372;75;21124;-46
2022/02/13 08:38:58;;;;;;;4.67;2.70;;;4.40;73.20;;;;;;1903504;75;21030;-46
2022/02/13 08:41:27;;;;;;;5.67;2.60;;;4.50;72.10;;;;;;1903487;75;21085;-47
2022/02/13 08:43:57;;;;;;;5.45;3.08;;;4.50;71.70;;;;;;1903429;75;21019;-47
2022/02/13 08:46:26;;;;;;;2.83;1.92;;;4.50;72.70;;;;;;1903535;75;21055;-46
2022/02/13 08:48:55;;;;;;;4.42;2.50;;;4.60;72.30;;;;;;1903466;75;21027;-46
2022/02/13 08:51:25;;;;;;;2.98;2.45;;;4.70;72.10;;;;;;1903454;75;21007;-46
2022/02/13 08:53:54;;;;;;;6.00;2.77;;;4.80;70.50;;;;;;1903581;75;21027;-46
2022/02/13 08:56:24;;;;;;;5.95;3.00;;;4.90;71.20;;;;;;1899922;75;21051;-46
2022/02/13 08:58:55;;;;;;;7.05;3.42;;;5.00;70.90;;;;;;1898533;75;21093;-46
2022/02/13 09:01:24;;;;;;;2.30;1.60;;;5.10;71.30;;;;;;1898551;75;21023;-46
2022/02/13 09:03:54;;;;;;;3.17;2.20;;;5.10;69.10;;;;;;1898518;75;21007;-46
2022/02/13 09:06:23;;;;;;;5.40;3.27;;;5.10;67.20;;;;;;1898601;75;21031;-47
2022/02/13 09:08:52;;;;;;;6.33;3.15;;;5.10;69.80;;;;;;1898608;75;21516;-47
2022/02/13 09:11:21;;;;;;;4.22;2.58;;;5.20;69.60;;;;;;1898515;75;21031;-46
2022/02/13 09:13:53;;;;;;;6.03;4.47;;;5.10;68.70;;;;;;1898610;75;21093;-46
2022/02/13 09:16:22;;;;;;;4.22;2.80;;;5.20;70.20;;;;;;1898424;75;20987;-46
2022/02/13 09:18:52;;;;;;;2.60;2.15;;;5.20;66.20;;;;;;1898462;75;21112;-46
2022/02/13 09:21:21;;;;;;;4.22;2.42;;;5.20;64.90;;;;;;1898387;75;21032;-46
2022/02/13 09:23:50;;;;;;;3.25;1.87;;;5.20;65.50;;;;;;1898406;75;21007;-46
2022/02/13 09:26:20;;;;;;;3.15;2.22;;;5.10;65.80;;;;;;1898466;75;21035;-45
2022/02/13 09:28:49;;;;;;;2.35;2.00;;;5.20;64.50;;;;;;1898381;75;21012;-48
2022/02/13 09:31:19;;;;;;;2.52;2.33;;;5.20;63.90;;;;;;1898483;75;21082;-46
2022/02/13 09:33:48;;;;;;;4.22;2.83;;;5.20;64.90;;;;;;1898456;75;21067;-45
2022/02/13 09:36:22;;;;;;;3.02;1.92;;;5.20;65.80;;;;;;1898555;75;21078;-45
2022/02/13 09:38:53;;;;;;;2.80;2.30;;;5.30;64.90;;;;;;1898426;75;21085;-47
2022/02/13 09:41:22;;;;;;;4.97;2.70;;;5.30;64.70;;;;;;1898360;75;21083;-45
2022/02/13 09:43:54;;;;;;;3.80;3.05;;;5.40;64.20;;;;;;1898450;75;21027;-45
2022/02/13 09:46:23;;;;;;;2.02;1.40;;;5.40;64.60;;;;;;1898600;75;21203;-46
2022/02/13 09:48:53;;;;;;;4.35;3.02;;;5.40;63.60;;;;;;1898403;75;21023;-46
2022/02/13 09:51:23;;;;;;;1.87;1.55;;;5.50;63.80;;;;;;1898403;75;21113;-46
2022/02/13 09:53:52;;;;;;;6.90;4.00;;;5.50;64.70;;;;;;1898350;75;21048;-46
2022/02/13 09:56:22;;;;;;;5.12;3.30;;;5.50;66.00;;;;;;1897516;75;21063;-46
2022/02/13 09:58:51;;;;;;;6.08;2.42;;;5.50;64.60;;;;;;1898393;75;21027;-47
2022/02/13 10:01:23;;;;;;;5.45;3.33;;;5.50;65.10;;;;;;1898539;75;21109;-45
2022/02/13 10:03:53;;;;;;;5.10;2.90;;;5.60;64.80;;;;;;1896354;75;21023;-45
2022/02/13 10:06:23;;;;;;;4.25;2.70;;;5.60;64.20;;;;;;1898425;75;21023;-46
2022/02/13 10:08:55;;;;;;;7.08;3.83;;;5.60;64.80;;;;;;1898504;75;21003;-47
2022/02/13 10:11:29;;;;;;;2.47;1.85;;;5.50;63.10;;;;;;1898386;75;21019;-46
2022/02/13 10:14:07;;;;;;;2.58;2.15;;;5.50;63.80;;;;;;1897707;75;21501;-47
2022/02/13 10:16:38;;;;;;;4.45;2.65;;;5.50;63.90;;;;;;1898411;75;21043;-46
2022/02/13 10:19:26;;;;;;;4.20;2.70;;;5.50;63.30;;;;;;1898396;75;21031;-47
2022/02/13 10:21:57;;;;;;;4.58;2.90;;;5.50;64.00;;;;;;1897527;75;21043;-46
2022/02/13 10:24:40;;;;;;;3.70;2.17;;;5.50;64.20;;;;;;1898545;75;21027;-45
2022/02/13 10:27:15;;;;;;;2.58;2.35;;;5.50;63.90;;;;;;1898301;75;21097;-46
2022/02/13 10:29:46;;;;;;;4.03;2.98;;;5.50;64.50;;;;;;1898565;75;21039;-46
2022/02/13 10:32:29;;;;;;;6.08;3.08;;;5.50;64.10;;;;;;1898425;75;21031;-46
2022/02/13 10:35:04;;;;;;;10.68;1.90;;;5.60;64.40;;;;;;1897080;75;21055;-46
2022/02/13 10:37:45;;;;;;;7.17;2.80;;;5.60;62.00;;;;;;1898338;75;21051;-46
2022/02/13 10:40:17;;;;;;;3.05;2.25;;;5.60;63.10;;;;;;1898400;75;21019;-46
2022/02/13 10:42:47;;;;;;;1.85;1.55;;;5.60;64.00;;;;;;1898307;75;21032;-46
2022/02/13 10:45:19;;;;;;;2.77;2.33;;;5.70;63.60;;;;;;1898401;75;21035;-47
2022/02/13 10:47:50;;;;;;;3.02;2.00;;;5.80;62.40;;;;;;1898363;75;21152;-46
2022/02/13 10:50:20;;;;;;;4.55;2.52;;;5.80;61.10;;;;;;1898413;75;21097;-47
2022/02/13 10:52:52;;;;;;;3.80;2.90;;;5.90;61.40;;;;;;1898445;75;21051;-47
2022/02/13 10:55:21;;;;;;;4.30;2.47;;;5.90;62.50;;;;;;1898199;75;21081;-47
2022/02/13 10:57:51;;;;;;;6.75;1.92;;;5.90;61.20;;;;;;1902176;75;21055;-45
2022/02/13 11:00:20;;;;;;;1.75;1.40;;;6.00;61.20;;;;;;1903564;75;21090;-45
2022/02/13 11:02:52;;;;;;;4.75;2.58;;;6.00;60.50;;;;;;1903498;75;21039;-46
2022/02/13 11:05:25;;;;;;;3.08;2.05;;;5.90;60.80;;;;;;1903592;75;20999;-45
2022/02/13 11:07:58;;;;;;;3.42;2.52;;;5.80;61.80;;;;;;1903455;75;21516;-46
2022/02/13 11:10:30;;;;;;;3.92;2.35;;;5.80;62.00;;;;;;1903371;75;21097;-46
2022/02/13 11:13:00;;;;;;;3.58;2.27;;;5.80;62.50;;;;;;1903336;75;21089;-45
2022/02/13 11:15:32;;;;;;;2.77;2.15;;;5.90;62.50;;;;;;1903366;75;21035;-46
2022/02/13 11:18:05;;;;;;;6.15;3.08;;;5.90;62.00;;;;;;1903323;75;21081;-48
2022/02/13 11:20:37;;;;;;;3.35;2.95;;;5.90;62.90;;;;;;1903403;75;21089;-46
2022/02/13 11:23:21;;;;;;;6.80;2.65;;;5.80;62.00;;;;;;1903305;75;21106;-46
2022/02/13 11:25:53;;;;;;;2.37;2.17;;;5.80;62.00;;;;;;1903463;75;21140;-46
2022/02/13 11:28:30;;;;;;;2.60;2.37;;;5.80;60.60;;;;;;1903253;75;21527;-46
2022/02/13 11:31:00;;;;;;;3.35;2.80;;;5.80;60.80;;;;;;1903353;75;21090;-45
2022/02/13 11:33:38;;;;;;;4.65;3.20;;;5.80;61.10;;;;;;1903345;75;21067;-45
2022/02/13 11:36:09;;;;;;;7.65;3.55;;;5.80;60.10;;;;;;1903517;75;21097;-46
2022/02/13 11:38:53;;;;;;;6.03;3.27;;;5.80;61.10;;;;;;1903470;75;21152;-46
2022/02/13 11:41:42;;;;;;;3.00;2.70;;;5.70;60.40;;;;;;1903547;75;21039;-46
2022/02/13 11:44:11;;;;;;;5.47;2.92;;;5.80;60.60;;;;;;1903239;75;21047;-45
2022/02/13 11:46:43;;;;;;;10.85;4.75;;;5.80;61.40;;;;;;1903362;75;20995;-45
2022/02/13 11:49:15;;;;;;;2.75;2.52;;;5.90;60.80;;;;;;1903540;75;21023;-46
2022/02/13 11:51:50;;;;;;;8.05;4.03;;;5.80;60.30;;;;;;1903207;75;21102;-46
2022/02/13 11:54:43;;;;;;;6.90;3.77;;;5.70;61.10;;;;;;1903485;75;21079;-45
2022/02/13 11:57:21;;;;;;;7.28;4.17;;;5.60;61.10;;;;;;1903324;75;21070;-46
2022/02/13 11:59:59;;;;;;;5.03;2.77;;;5.60;62.20;;;;;;1903335;75;21051;-45
2022/02/13 12:02:44;;;;;;;5.33;3.30;;;5.70;61.60;;;;;;1903413;75;21458;-45
2022/02/13 12:05:16;;;;;;;3.35;2.15;;;5.80;62.30;;;;;;1903665;75;21023;-45
2022/02/13 12:07:51;;;;;;;6.42;4.05;;;5.80;60.50;;;;;;1903515;75;21019;-45
2022/02/13 12:10:45;;;;;;;4.90;3.25;;;5.80;61.30;;;;;;1903567;75;21075;-45
2022/02/13 12:13:18;;;;;;;2.17;1.87;;;5.80;62.00;;;;;;1903294;75;21051;-45
2022/02/13 12:15:55;;;;;;;2.90;2.23;;;5.80;61.10;;;;;;1903855;75;21085;-45
2022/02/13 12:18:25;;;;;;;3.25;2.85;;;5.80;61.10;;;;;;1903487;75;21449;-46
2022/02/13 12:21:02;;;;;;;3.00;2.15;;;5.70;60.70;;;;;;1903635;75;21031;-46
2022/02/13 12:23:33;;;;;;;4.78;2.87;;;5.60;60.40;;;;;;1903584;75;20999;-46
2022/02/13 12:26:04;;;;;;;3.45;2.75;;;5.50;61.60;;;;;;1903669;75;21120;-45
2022/02/13 12:28:40;;;;;;;3.42;2.77;;;5.50;60.30;;;;;;1903561;75;21063;-46
2022/02/13 12:31:10;;;;;;;2.67;1.67;;;5.50;60.10;;;;;;1903543;75;21047;-46
2022/02/13 12:33:50;;;;;;;2.58;2.37;;;5.50;59.70;;;;;;1903470;75;21112;-45
2022/02/13 12:36:19;;;;;;;1.57;1.30;;;5.60;60.40;;;;;;1903225;75;21093;-45
2022/02/13 12:38:50;;;;;;;6.12;3.15;;;5.60;59.90;;;;;;1900581;75;21031;-46
2022/02/13 12:41:22;;;;;;;5.60;3.17;;;5.60;60.60;;;;;;1903519;75;21079;-45
2022/02/13 12:43:53;;;;;;;3.72;2.08;;;5.70;61.10;;;;;;1903556;75;21031;-45
2022/02/13 12:46:22;;;;;;;4.35;2.60;;;5.70;59.90;;;;;;1903439;75;21027;-46
2022/02/13 12:48:52;;;;;;;2.98;2.35;;;5.70;59.90;;;;;;1903395;75;21077;-45
2022/02/13 12:51:28;;;;;;;5.22;2.50;;;5.70;58.60;;;;;;1903352;75;21031;-45
2022/02/13 12:53:59;;;;;;;4.65;2.45;;;5.70;59.00;;;;;;1903499;75;21171;-45
2022/02/13 12:56:28;;;;;;;4.05;1.98;;;5.80;58.90;;;;;;1903465;75;21539;-45
2022/02/13 12:59:00;;;;;;;3.27;2.65;;;5.70;57.70;;;;;;1903553;75;21039;-45
2022/02/13 13:01:35;;;;;;;7.15;3.75;;;5.70;57.80;;;;;;1903449;75;21477;-45
2022/02/13 13:04:04;;;;;;;6.08;3.20;;;5.70;59.50;;;;;;1903444;75;21087;-47
2022/02/13 13:06:33;;;;;;;4.50;2.75;;;5.80;59.10;;;;;;1903549;75;21105;-46
2022/02/13 13:09:02;;;;;;;6.40;2.30;;;5.80;59.60;;;;;;1903528;75;21003;-47
2022/02/13 13:11:32;;;;;;;4.85;3.15;;;5.80;58.60;;;;;;1903436;75;21089;-44